sensor_id;sensor_type;location;lat;lon;timestamp;pressure;altitude;pressure_sealevel;temperature;humidity
62126;BME280;69591;53.282;6.150;2023-06-22T00:00:29;102105.44;;;24.56;58.40
62126;BME280;69591;53.282;6.150;2023-06-22T00:01:31;102104.25;;;24.53;58.21
62126;BME280;69591;53.282;6.150;2023-06-22T00:02:32;102118.88;;;24.54;58.22
62126;BME280;69591;53.282;6.150;2023-06-22T00:03:34;102111.00;;;24.52;57.95
62126;BME280;69591;53.282;6.150;2023-06-22T00:04:36;102120.84;;;24.53;58.23
62126;BME280;69591;53.282;6.150;2023-06-22T00:05:38;102113.75;;;24.52;57.89
62126;BME280;69591;53.282;6.150;2023-06-22T00:06:40;102111.00;;;24.52;58.17
62126;BME280;69591;53.282;6.150;2023-06-22T00:07:42;102108.63;;;24.51;58.00
62126;BME280;69591;53.282;6.150;2023-06-22T00:08:44;102101.91;;;24.52;58.31
62126;BME280;69591;53.282;6.150;2023-06-22T00:09:45;102108.63;;;24.51;57.86
62126;BME280;69591;53.282;6.150;2023-06-22T00:10:47;102108.63;;;24.51;57.82
62126;BME280;69591;53.282;6.150;2023-06-22T00:11:49;102113.34;;;24.50;58.39
62126;BME280;69591;53.282;6.150;2023-06-22T00:12:50;102113.34;;;24.50;58.04
62126;BME280;69591;53.282;6.150;2023-06-22T00:13:52;102109.03;;;24.49;58.27
62126;BME280;69591;53.282;6.150;2023-06-22T00:14:54;102106.28;;;24.49;57.88
62126;BME280;69591;53.282;6.150;2023-06-22T00:15:57;102112.19;;;24.51;58.45
62126;BME280;69591;53.282;6.150;2023-06-22T00:16:58;102113.34;;;24.50;57.97
62126;BME280;69591;53.282;6.150;2023-06-22T00:18:00;102114.16;;;24.51;57.99
62126;BME280;69591;53.282;6.150;2023-06-22T00:19:02;102113.75;;;24.49;58.40
62126;BME280;69591;53.282;6.150;2023-06-22T00:20:05;102113.34;;;24.50;58.18
62126;BME280;69591;53.282;6.150;2023-06-22T00:21:06;102117.31;;;24.49;58.28
62126;BME280;69591;53.282;6.150;2023-06-22T00:22:08;102113.75;;;24.49;58.66
62126;BME280;69591;53.282;6.150;2023-06-22T00:23:10;102112.97;;;24.48;58.14
62126;BME280;69591;53.282;6.150;2023-06-22T00:24:12;102116.94;;;24.47;58.18
62126;BME280;69591;53.282;6.150;2023-06-22T00:25:13;102114.16;;;24.47;57.87
62126;BME280;69591;53.282;6.150;2023-06-22T00:26:15;102116.94;;;24.47;58.31
62126;BME280;69591;53.282;6.150;2023-06-22T00:27:17;102121.25;;;24.48;58.28
62126;BME280;69591;53.282;6.150;2023-06-22T00:28:19;102122.47;;;24.47;58.15
62126;BME280;69591;53.282;6.150;2023-06-22T00:29:20;102119.69;;;24.47;57.96
62126;BME280;69591;53.282;6.150;2023-06-22T00:30:25;102117.34;;;24.46;58.45
62126;BME280;69591;53.282;6.150;2023-06-22T00:31:28;102122.47;;;24.47;58.64
62126;BME280;69591;53.282;6.150;2023-06-22T00:32:30;102120.50;;;24.44;58.40
62126;BME280;69591;53.282;6.150;2023-06-22T00:33:32;102127.59;;;24.45;58.00
62126;BME280;69591;53.282;6.150;2023-06-22T00:34:34;102122.06;;;24.45;57.76
62126;BME280;69591;53.282;6.150;2023-06-22T00:35:35;102126.03;;;24.44;58.26
62126;BME280;69591;53.282;6.150;2023-06-22T00:36:37;102131.53;;;24.44;58.42
62126;BME280;69591;53.282;6.150;2023-06-22T00:37:39;102134.31;;;24.44;58.30
62126;BME280;69591;53.282;6.150;2023-06-22T00:38:41;102130.00;;;24.43;57.96
62126;BME280;69591;53.282;6.150;2023-06-22T00:39:43;102128.41;;;24.42;58.12
62126;BME280;69591;53.282;6.150;2023-06-22T00:40:45;102127.63;;;24.42;58.36
62126;BME280;69591;53.282;6.150;2023-06-22T00:41:48;102129.59;;;24.41;57.80
62126;BME280;69591;53.282;6.150;2023-06-22T00:42:50;102131.56;;;24.41;57.97
62126;BME280;69591;53.282;6.150;2023-06-22T00:43:52;102133.16;;;24.42;58.18
62126;BME280;69591;53.282;6.150;2023-06-22T00:44:53;102139.44;;;24.42;57.85
62126;BME280;69591;53.282;6.150;2023-06-22T00:45:56;102139.44;;;24.42;57.90
62126;BME280;69591;53.282;6.150;2023-06-22T00:46:59;102138.69;;;24.42;57.87
62126;BME280;69591;53.282;6.150;2023-06-22T00:48:01;102133.56;;;24.40;58.40
62126;BME280;69591;53.282;6.150;2023-06-22T00:49:03;102138.28;;;24.40;58.17
62126;BME280;69591;53.282;6.150;2023-06-22T00:50:06;102143.41;;;24.41;58.19
62126;BME280;69591;53.282;6.150;2023-06-22T00:51:09;102143.00;;;24.39;58.21
62126;BME280;69591;53.282;6.150;2023-06-22T00:52:13;102147.75;;;24.39;58.02
62126;BME280;69591;53.282;6.150;2023-06-22T00:53:15;102146.97;;;24.38;57.96
62126;BME280;69591;53.282;6.150;2023-06-22T00:54:17;102146.97;;;24.38;58.03
62126;BME280;69591;53.282;6.150;2023-06-22T00:55:19;102144.22;;;24.38;57.83
62126;BME280;69591;53.282;6.150;2023-06-22T00:56:23;102146.97;;;24.38;58.61
62126;BME280;69591;53.282;6.150;2023-06-22T00:57:25;102153.66;;;24.37;58.43
62126;BME280;69591;53.282;6.150;2023-06-22T00:58:29;102156.06;;;24.35;57.96
62126;BME280;69591;53.282;6.150;2023-06-22T00:59:31;102150.53;;;24.35;57.97
62126;BME280;69591;53.282;6.150;2023-06-22T01:00:33;102152.91;;;24.37;57.67
62126;BME280;69591;53.282;6.150;2023-06-22T01:01:35;102156.81;;;24.36;58.18
62126;BME280;69591;53.282;6.150;2023-06-22T01:02:38;102157.63;;;24.36;58.14
62126;BME280;69591;53.282;6.150;2023-06-22T01:03:40;102160.00;;;24.34;58.40
62126;BME280;69591;53.282;6.150;2023-06-22T01:04:42;102160.00;;;24.34;57.67
62126;BME280;69591;53.282;6.150;2023-06-22T01:05:46;102157.63;;;24.36;57.91
62126;BME280;69591;53.282;6.150;2023-06-22T01:06:55;102166.72;;;24.33;57.83
62126;BME280;69591;53.282;6.150;2023-06-22T01:08:02;102159.31;;;24.09;58.30
62126;BME280;69591;53.282;6.150;2023-06-22T01:09:11;102159.25;;;24.23;57.97
62126;BME280;69591;53.282;6.150;2023-06-22T01:10:18;102154.53;;;24.27;58.03
62126;BME280;69591;53.282;6.150;2023-06-22T01:11:26;102156.09;;;24.28;58.21
62126;BME280;69591;53.282;6.150;2023-06-22T01:12:32;102156.09;;;24.28;58.30
62126;BME280;69591;53.282;6.150;2023-06-22T01:13:41;102158.06;;;24.28;58.27
62126;BME280;69591;53.282;6.150;2023-06-22T01:14:49;102156.50;;;24.27;58.12
62126;BME280;69591;53.282;6.150;2023-06-22T01:15:57;102144.28;;;24.24;58.10
62126;BME280;69591;53.282;6.150;2023-06-22T01:17:00;102148.22;;;24.27;58.27
62126;BME280;69591;53.282;6.150;2023-06-22T01:18:04;102147.00;;;24.28;58.00
62126;BME280;69591;53.282;6.150;2023-06-22T01:19:18;102152.16;;;24.26;57.86
62126;BME280;69591;53.282;6.150;2023-06-22T01:20:22;102155.69;;;24.26;58.03
62126;BME280;69591;53.282;6.150;2023-06-22T01:21:28;102149.81;;;24.24;58.05
62126;BME280;69591;53.282;6.150;2023-06-22T01:22:44;102149.00;;;24.24;57.72
62126;BME280;69591;53.282;6.150;2023-06-22T01:23:54;102144.28;;;24.24;58.11
62126;BME280;69591;53.282;6.150;2023-06-22T01:25:09;102145.09;;;24.21;57.93
62126;BME280;69591;53.282;6.150;2023-06-22T01:26:16;102149.00;;;24.24;58.17
62126;BME280;69591;53.282;6.150;2023-06-22T01:27:32;102153.00;;;24.19;58.35
62126;BME280;69591;53.282;6.150;2023-06-22T01:28:45;102142.75;;;24.16;58.14
62126;BME280;69591;53.282;6.150;2023-06-22T01:29:48;102149.03;;;24.20;58.54
62126;BME280;69591;53.282;6.150;2023-06-22T01:30:52;102145.09;;;24.21;58.30
62126;BME280;69591;53.282;6.150;2023-06-22T01:31:54;102150.63;;;24.21;57.98
62126;BME280;69591;53.282;6.150;2023-06-22T01:33:01;102148.63;;;24.22;58.05
62126;BME280;69591;53.282;6.150;2023-06-22T01:34:06;102142.34;;;24.21;58.12
62126;BME280;69591;53.282;6.150;2023-06-22T01:35:10;102138.78;;;24.21;57.76
62126;BME280;69591;53.282;6.150;2023-06-22T01:36:13;102135.63;;;24.22;58.43
62126;BME280;69591;53.282;6.150;2023-06-22T01:37:16;102134.06;;;24.21;58.08
62126;BME280;69591;53.282;6.150;2023-06-22T01:38:17;102139.56;;;24.21;57.99
62126;BME280;69591;53.282;6.150;2023-06-22T01:39:21;102132.84;;;24.22;58.10
62126;BME280;69591;53.282;6.150;2023-06-22T01:40:28;102130.09;;;24.22;58.15
62126;BME280;69591;53.282;6.150;2023-06-22T01:41:34;102134.81;;;24.22;58.05
62126;BME280;69591;53.282;6.150;2023-06-22T01:42:37;102133.25;;;24.21;57.88
62126;BME280;69591;53.282;6.150;2023-06-22T01:43:42;102132.47;;;24.20;57.73
62126;BME280;69591;53.282;6.150;2023-06-22T01:44:45;102129.31;;;24.22;58.18
62126;BME280;69591;53.282;6.150;2023-06-22T01:45:47;102128.53;;;24.21;57.95
62126;BME280;69591;53.282;6.150;2023-06-22T01:46:50;102121.81;;;24.22;57.70
62126;BME280;69591;53.282;6.150;2023-06-22T01:47:55;102126.94;;;24.20;57.67
62126;BME280;69591;53.282;6.150;2023-06-22T01:48:57;102117.50;;;24.21;57.64
62126;BME280;69591;53.282;6.150;2023-06-22T01:49:59;102126.94;;;24.20;57.71
62126;BME280;69591;53.282;6.150;2023-06-22T01:51:01;102111.97;;;24.21;57.96
62126;BME280;69591;53.282;6.150;2023-06-22T01:52:04;102122.63;;;24.19;57.92
62126;BME280;69591;53.282;6.150;2023-06-22T01:53:06;102115.13;;;24.20;57.72
62126;BME280;69591;53.282;6.150;2023-06-22T01:54:08;102106.47;;;24.18;57.46
62126;BME280;69591;53.282;6.150;2023-06-22T01:55:10;102108.81;;;24.19;57.62
62126;BME280;69591;53.282;6.150;2023-06-22T01:56:11;102106.47;;;24.18;57.76
62126;BME280;69591;53.282;6.150;2023-06-22T01:57:13;102105.69;;;24.17;57.80
62126;BME280;69591;53.282;6.150;2023-06-22T01:58:15;102112.75;;;24.18;57.78
62126;BME280;69591;53.282;6.150;2023-06-22T01:59:23;102118.69;;;24.17;58.19
62126;BME280;69591;53.282;6.150;2023-06-22T02:00:28;102114.75;;;24.18;57.86
62126;BME280;69591;53.282;6.150;2023-06-22T02:01:38;102114.75;;;24.14;57.71
62126;BME280;69591;53.282;6.150;2023-06-22T02:02:46;102115.56;;;24.15;57.70
62126;BME280;69591;53.282;6.150;2023-06-22T02:03:53;102119.88;;;24.16;57.99
62126;BME280;69591;53.282;6.150;2023-06-22T02:05:02;102115.97;;;24.13;58.11
62126;BME280;69591;53.282;6.150;2023-06-22T02:06:08;102111.59;;;24.12;57.96
62126;BME280;69591;53.282;6.150;2023-06-22T02:07:14;102127.34;;;24.15;57.85
62126;BME280;69591;53.282;6.150;2023-06-22T02:08:20;102119.09;;;24.15;57.52
62126;BME280;69591;53.282;6.150;2023-06-22T02:09:23;102123.03;;;24.14;58.16
62126;BME280;69591;53.282;6.150;2023-06-22T02:10:28;102122.25;;;24.14;58.24
62126;BME280;69591;53.282;6.150;2023-06-22T02:11:33;102118.31;;;24.15;57.85
62126;BME280;69591;53.282;6.150;2023-06-22T02:12:35;102123.84;;;24.15;58.14
62126;BME280;69591;53.282;6.150;2023-06-22T02:13:38;102134.06;;;24.14;57.81
62126;BME280;69591;53.282;6.150;2023-06-22T02:14:40;102128.56;;;24.14;57.79
62126;BME280;69591;53.282;6.150;2023-06-22T02:15:45;102127.00;;;24.13;57.84
62126;BME280;69591;53.282;6.150;2023-06-22T02:16:47;102128.97;;;24.13;57.98
62126;BME280;69591;53.282;6.150;2023-06-22T02:17:49;102130.16;;;24.12;57.53
62126;BME280;69591;53.282;6.150;2023-06-22T02:18:51;102125.41;;;24.12;57.82
62126;BME280;69591;53.282;6.150;2023-06-22T02:19:53;102130.16;;;24.12;57.70
62126;BME280;69591;53.282;6.150;2023-06-22T02:20:54;102123.06;;;24.11;57.96
62126;BME280;69591;53.282;6.150;2023-06-22T02:21:56;102126.22;;;24.09;58.00
62126;BME280;69591;53.282;6.150;2023-06-22T02:22:58;102114.38;;;24.09;57.69
62126;BME280;69591;53.282;6.150;2023-06-22T02:24:00;102115.19;;;24.09;57.61
62126;BME280;69591;53.282;6.150;2023-06-22T02:25:04;102108.09;;;24.08;57.49
62126;BME280;69591;53.282;6.150;2023-06-22T02:26:06;102110.84;;;24.08;57.33
62126;BME280;69591;53.282;6.150;2023-06-22T02:27:08;102109.66;;;24.09;57.56
62126;BME280;69591;53.282;6.150;2023-06-22T02:28:10;102113.63;;;24.08;57.58
62126;BME280;69591;53.282;6.150;2023-06-22T02:29:12;102108.09;;;24.08;57.58
62126;BME280;69591;53.282;6.150;2023-06-22T02:30:17;102102.19;;;24.06;57.67
62126;BME280;69591;53.282;6.150;2023-06-22T02:31:20;102110.47;;;24.06;57.30
62126;BME280;69591;53.282;6.150;2023-06-22T02:32:21;102113.22;;;24.06;57.65
62126;BME280;69591;53.282;6.150;2023-06-22T02:33:23;102102.19;;;24.06;57.30
62126;BME280;69591;53.282;6.150;2023-06-22T02:34:25;102109.66;;;24.06;57.72
62126;BME280;69591;53.282;6.150;2023-06-22T02:35:26;102096.28;;;24.04;57.49
62126;BME280;69591;53.282;6.150;2023-06-22T02:36:28;102104.56;;;24.04;57.34
62126;BME280;69591;53.282;6.150;2023-06-22T02:37:30;102099.03;;;24.04;57.69
62126;BME280;69591;53.282;6.150;2023-06-22T02:38:32;102098.25;;;24.04;57.71
62126;BME280;69591;53.282;6.150;2023-06-22T02:39:34;102106.53;;;24.04;57.44
62126;BME280;69591;53.282;6.150;2023-06-22T02:40:35;102101.44;;;24.02;57.17
62126;BME280;69591;53.282;6.150;2023-06-22T02:41:37;102103.38;;;24.02;57.65
62126;BME280;69591;53.282;6.150;2023-06-22T02:42:39;102110.88;;;24.01;57.49
62126;BME280;69591;53.282;6.150;2023-06-22T02:43:41;102108.13;;;24.01;57.49
62126;BME280;69591;53.282;6.150;2023-06-22T02:44:42;102107.31;;;24.01;57.20
62126;BME280;69591;53.282;6.150;2023-06-22T02:45:44;102108.13;;;24.01;57.47
62126;BME280;69591;53.282;6.150;2023-06-22T02:46:48;102110.88;;;24.01;57.47
62126;BME280;69591;53.282;6.150;2023-06-22T02:47:51;102110.47;;;23.99;57.34
62126;BME280;69591;53.282;6.150;2023-06-22T02:48:52;102114.03;;;24.00;57.33
62126;BME280;69591;53.282;6.150;2023-06-22T02:49:54;102117.59;;;24.00;57.27
62126;BME280;69591;53.282;6.150;2023-06-22T02:50:57;102116.78;;;24.00;57.23
62126;BME280;69591;53.282;6.150;2023-06-22T02:51:59;102116.00;;;23.99;57.53
62126;BME280;69591;53.282;6.150;2023-06-22T02:53:01;102118.75;;;23.99;57.20
62126;BME280;69591;53.282;6.150;2023-06-22T02:54:06;102122.28;;;23.96;57.01
62126;BME280;69591;53.282;6.150;2023-06-22T02:55:08;102111.25;;;23.96;57.09
62126;BME280;69591;53.282;6.150;2023-06-22T02:56:10;102120.34;;;23.97;57.31
62126;BME280;69591;53.282;6.150;2023-06-22T02:57:12;102114.00;;;23.96;57.22
62126;BME280;69591;53.282;6.150;2023-06-22T02:58:14;102110.50;;;23.96;57.36
62126;BME280;69591;53.282;6.150;2023-06-22T02:59:16;102109.69;;;23.95;57.54
62126;BME280;69591;53.282;6.150;2023-06-22T03:00:19;102111.66;;;23.95;57.41
62126;BME280;69591;53.282;6.150;2023-06-22T03:01:22;102120.34;;;23.93;57.36
62126;BME280;69591;53.282;6.150;2023-06-22T03:02:25;102120.72;;;23.95;57.25
62126;BME280;69591;53.282;6.150;2023-06-22T03:03:27;102120.34;;;23.93;57.40
62126;BME280;69591;53.282;6.150;2023-06-22T03:04:29;102124.69;;;23.94;57.25
62126;BME280;69591;53.282;6.150;2023-06-22T03:05:30;102127.44;;;23.94;57.44
62126;BME280;69591;53.282;6.150;2023-06-22T03:06:33;102128.63;;;23.93;57.56
62126;BME280;69591;53.282;6.150;2023-06-22T03:07:35;102129.41;;;23.94;57.46
62126;BME280;69591;53.282;6.150;2023-06-22T03:08:37;102123.09;;;23.93;57.27
62126;BME280;69591;53.282;6.150;2023-06-22T03:09:39;102125.84;;;23.93;57.25
62126;BME280;69591;53.282;6.150;2023-06-22T03:10:41;102127.44;;;23.94;57.23
62126;BME280;69591;53.282;6.150;2023-06-22T03:11:43;102131.38;;;23.93;57.40
62126;BME280;69591;53.282;6.150;2023-06-22T03:12:45;102124.28;;;23.92;57.55
62126;BME280;69591;53.282;6.150;2023-06-22T03:13:46;102128.63;;;23.93;57.23
62126;BME280;69591;53.282;6.150;2023-06-22T03:14:48;102134.94;;;23.94;57.33
62126;BME280;69591;53.282;6.150;2023-06-22T03:15:50;102130.97;;;23.95;57.55
62126;BME280;69591;53.282;6.150;2023-06-22T03:16:51;102136.50;;;23.95;57.46
62126;BME280;69591;53.282;6.150;2023-06-22T03:17:55;102125.44;;;23.95;57.54
62126;BME280;69591;53.282;6.150;2023-06-22T03:18:57;102134.13;;;23.93;57.38
62126;BME280;69591;53.282;6.150;2023-06-22T03:20:00;102136.88;;;23.93;57.49
62126;BME280;69591;53.282;6.150;2023-06-22T03:21:01;102128.63;;;23.93;57.21
62126;BME280;69591;53.282;6.150;2023-06-22T03:22:04;102123.09;;;23.93;57.55
62126;BME280;69591;53.282;6.150;2023-06-22T03:23:06;102134.13;;;23.93;57.44
62126;BME280;69591;53.282;6.150;2023-06-22T03:24:08;102125.09;;;23.93;57.63
62126;BME280;69591;53.282;6.150;2023-06-22T03:25:09;102128.63;;;23.93;57.22
62126;BME280;69591;53.282;6.150;2023-06-22T03:26:16;102123.09;;;23.93;57.30
62126;BME280;69591;53.282;6.150;2023-06-22T03:27:18;102123.50;;;23.92;57.31
62126;BME280;69591;53.282;6.150;2023-06-22T03:28:20;102119.97;;;23.91;57.49
62126;BME280;69591;53.282;6.150;2023-06-22T03:29:21;102127.06;;;23.92;57.42
62126;BME280;69591;53.282;6.150;2023-06-22T03:30:24;102119.19;;;23.91;57.51
62126;BME280;69591;53.282;6.150;2023-06-22T03:31:26;102125.50;;;23.91;57.47
62126;BME280;69591;53.282;6.150;2023-06-22T03:32:27;102131.00;;;23.91;57.49
62126;BME280;69591;53.282;6.150;2023-06-22T03:33:30;102127.06;;;23.92;57.31
62126;BME280;69591;53.282;6.150;2023-06-22T03:34:33;102123.50;;;23.92;57.64
62126;BME280;69591;53.282;6.150;2023-06-22T03:35:34;102127.06;;;23.92;57.50
62126;BME280;69591;53.282;6.150;2023-06-22T03:36:36;102128.25;;;23.91;57.51
62126;BME280;69591;53.282;6.150;2023-06-22T03:37:38;102131.78;;;23.92;57.59
62126;BME280;69591;53.282;6.150;2023-06-22T03:38:40;102125.50;;;23.91;57.49
62126;BME280;69591;53.282;6.150;2023-06-22T03:39:43;102129.41;;;23.90;57.27
62126;BME280;69591;53.282;6.150;2023-06-22T03:40:46;102131.00;;;23.91;57.18
62126;BME280;69591;53.282;6.150;2023-06-22T03:41:48;102126.66;;;23.90;57.20
62126;BME280;69591;53.282;6.150;2023-06-22T03:42:50;102124.69;;;23.91;57.37
62126;BME280;69591;53.282;6.150;2023-06-22T03:43:51;102123.91;;;23.90;57.65
62126;BME280;69591;53.282;6.150;2023-06-22T03:44:53;102118.38;;;23.90;57.57
62126;BME280;69591;53.282;6.150;2023-06-22T03:45:55;102129.41;;;23.90;57.27
62126;BME280;69591;53.282;6.150;2023-06-22T03:46:56;102129.41;;;23.90;57.42
62126;BME280;69591;53.282;6.150;2023-06-22T03:47:58;102119.56;;;23.89;57.50
62126;BME280;69591;53.282;6.150;2023-06-22T03:49:01;102123.91;;;23.90;57.32
62126;BME280;69591;53.282;6.150;2023-06-22T03:50:06;102121.13;;;23.90;57.71
62126;BME280;69591;53.282;6.150;2023-06-22T03:51:08;102122.34;;;23.89;57.57
62126;BME280;69591;53.282;6.150;2023-06-22T03:52:10;102119.19;;;23.91;57.32
62126;BME280;69591;53.282;6.150;2023-06-22T03:53:11;102119.97;;;23.91;57.32
62126;BME280;69591;53.282;6.150;2023-06-22T03:54:13;102121.94;;;23.91;57.37
62126;BME280;69591;53.282;6.150;2023-06-22T03:55:15;102114.44;;;23.91;57.49
62126;BME280;69591;53.282;6.150;2023-06-22T03:56:17;102119.56;;;23.93;57.26
62126;BME280;69591;53.282;6.150;2023-06-22T03:57:18;102110.50;;;23.92;57.57
62126;BME280;69591;53.282;6.150;2023-06-22T03:58:21;102114.81;;;23.93;57.29
62126;BME280;69591;53.282;6.150;2023-06-22T03:59:23;102112.47;;;23.92;57.61
62126;BME280;69591;53.282;6.150;2023-06-22T04:00:24;102117.56;;;23.93;57.57
62126;BME280;69591;53.282;6.150;2023-06-22T04:01:26;102110.88;;;23.94;57.17
62126;BME280;69591;53.282;6.150;2023-06-22T04:02:28;102109.31;;;23.93;57.40
62126;BME280;69591;53.282;6.150;2023-06-22T04:03:30;102115.22;;;23.95;57.02
62126;BME280;69591;53.282;6.150;2023-06-22T04:04:33;102105.75;;;23.96;57.07
62126;BME280;69591;53.282;6.150;2023-06-22T04:05:35;102106.94;;;23.95;57.59
62126;BME280;69591;53.282;6.150;2023-06-22T04:06:37;102106.56;;;23.97;57.21
62126;BME280;69591;53.282;6.150;2023-06-22T04:07:39;102110.13;;;23.97;57.06
62126;BME280;69591;53.282;6.150;2023-06-22T04:08:40;102099.84;;;23.98;57.14
62126;BME280;69591;53.282;6.150;2023-06-22T04:09:42;102100.66;;;23.98;57.31
62126;BME280;69591;53.282;6.150;2023-06-22T04:10:44;102107.72;;;23.99;56.88
62126;BME280;69591;53.282;6.150;2023-06-22T04:11:45;102101.03;;;24.00;57.06
62126;BME280;69591;53.282;6.150;2023-06-22T04:12:47;102101.03;;;24.00;56.92
62126;BME280;69591;53.282;6.150;2023-06-22T04:13:49;102100.63;;;24.02;57.24
62126;BME280;69591;53.282;6.150;2023-06-22T04:14:50;102110.88;;;24.01;57.23
62126;BME280;69591;53.282;6.150;2023-06-22T04:15:52;102106.94;;;24.02;57.05
62126;BME280;69591;53.282;6.150;2023-06-22T04:16:54;102109.72;;;24.02;56.92
62126;BME280;69591;53.282;6.150;2023-06-22T04:17:56;102110.47;;;24.03;57.02
62126;BME280;69591;53.282;6.150;2023-06-22T04:18:57;102108.91;;;24.02;56.93
62126;BME280;69591;53.282;6.150;2023-06-22T04:20:00;102116.38;;;24.05;57.34
62126;BME280;69591;53.282;6.150;2023-06-22T04:21:02;102111.25;;;24.03;57.06
62126;BME280;69591;53.282;6.150;2023-06-22T04:22:04;102103.00;;;24.03;57.03
62126;BME280;69591;53.282;6.150;2023-06-22T04:23:06;102115.59;;;24.04;56.74
62126;BME280;69591;53.282;6.150;2023-06-22T04:24:07;102109.31;;;24.04;57.32
62126;BME280;69591;53.282;6.150;2023-06-22T04:25:09;102106.53;;;24.04;57.02
62126;BME280;69591;53.282;6.150;2023-06-22T04:26:11;102114.03;;;24.03;57.12
62126;BME280;69591;53.282;6.150;2023-06-22T04:27:12;102113.63;;;24.05;56.92
62126;BME280;69591;53.282;6.150;2023-06-22T04:28:14;102116.38;;;24.05;57.19
62126;BME280;69591;53.282;6.150;2023-06-22T04:29:16;102114.41;;;24.05;57.10
62126;BME280;69591;53.282;6.150;2023-06-22T04:30:18;102111.66;;;24.05;57.22
62126;BME280;69591;53.282;6.150;2023-06-22T04:31:19;102117.53;;;24.07;57.23
62126;BME280;69591;53.282;6.150;2023-06-22T04:32:21;102123.06;;;24.07;57.16
62126;BME280;69591;53.282;6.150;2023-06-22T04:33:23;102110.06;;;24.08;57.05
62126;BME280;69591;53.282;6.150;2023-06-22T04:34:25;102119.13;;;24.08;57.21
62126;BME280;69591;53.282;6.150;2023-06-22T04:35:28;102109.66;;;24.09;56.96
62126;BME280;69591;53.282;6.150;2023-06-22T04:36:29;102115.56;;;24.08;56.93
62126;BME280;69591;53.282;6.150;2023-06-22T04:37:31;102105.34;;;24.08;56.79
62126;BME280;69591;53.282;6.150;2023-06-22T04:38:33;102109.66;;;24.09;56.94
62126;BME280;69591;53.282;6.150;2023-06-22T04:39:34;102111.63;;;24.09;56.96
62126;BME280;69591;53.282;6.150;2023-06-22T04:40:36;102109.66;;;24.09;57.08
62126;BME280;69591;53.282;6.150;2023-06-22T04:41:39;102108.47;;;24.10;57.25
62126;BME280;69591;53.282;6.150;2023-06-22T04:42:41;102094.28;;;24.08;57.10
62126;BME280;69591;53.282;6.150;2023-06-22T04:43:42;102095.06;;;24.12;56.99
62126;BME280;69591;53.282;6.150;2023-06-22T04:44:44;102104.91;;;24.13;57.44
62126;BME280;69591;53.282;6.150;2023-06-22T04:45:46;102091.13;;;24.13;56.97
62126;BME280;69591;53.282;6.150;2023-06-22T04:46:47;102092.69;;;24.14;57.24
62126;BME280;69591;53.282;6.150;2023-06-22T04:47:49;102092.28;;;24.16;57.10
62126;BME280;69591;53.282;6.150;2023-06-22T04:48:51;102098.59;;;24.16;57.05
62126;BME280;69591;53.282;6.150;2023-06-22T04:49:52;102094.63;;;24.17;57.20
62126;BME280;69591;53.282;6.150;2023-06-22T04:50:55;102090.66;;;24.18;56.55
62126;BME280;69591;53.282;6.150;2023-06-22T04:51:57;102096.19;;;24.18;56.94
62126;BME280;69591;53.282;6.150;2023-06-22T04:52:59;102097.00;;;24.19;56.64
62126;BME280;69591;53.282;6.150;2023-06-22T04:54:01;102092.25;;;24.19;56.91
62126;BME280;69591;53.282;6.150;2023-06-22T04:55:03;102093.81;;;24.20;57.27
62126;BME280;69591;53.282;6.150;2023-06-22T04:56:04;102089.09;;;24.21;57.00
62126;BME280;69591;53.282;6.150;2023-06-22T04:57:07;102077.66;;;24.22;57.29
62126;BME280;69591;53.282;6.150;2023-06-22T04:58:09;102085.94;;;24.22;57.13
62126;BME280;69591;53.282;6.150;2023-06-22T04:59:10;102079.63;;;24.22;56.83
62126;BME280;69591;53.282;6.150;2023-06-22T05:00:13;102069.38;;;24.22;57.05
62126;BME280;69591;53.282;6.150;2023-06-22T05:01:15;102071.34;;;24.22;57.24
62126;BME280;69591;53.282;6.150;2023-06-22T05:02:17;102083.56;;;24.24;57.04
62126;BME280;69591;53.282;6.150;2023-06-22T05:03:18;102075.28;;;24.24;57.00
62126;BME280;69591;53.282;6.150;2023-06-22T05:04:21;102085.13;;;24.25;57.32
62126;BME280;69591;53.282;6.150;2023-06-22T05:05:24;102079.59;;;24.25;57.38
62126;BME280;69591;53.282;6.150;2023-06-22T05:06:27;102082.75;;;24.27;57.05
62126;BME280;69591;53.282;6.150;2023-06-22T05:07:29;102083.94;;;24.26;57.27
62126;BME280;69591;53.282;6.150;2023-06-22T05:08:30;102083.94;;;24.26;56.97
62126;BME280;69591;53.282;6.150;2023-06-22T05:09:32;102076.03;;;24.28;57.35
62126;BME280;69591;53.282;6.150;2023-06-22T05:10:34;102087.06;;;24.28;57.22
62126;BME280;69591;53.282;6.150;2023-06-22T05:11:36;102089.84;;;24.28;57.15
62126;BME280;69591;53.282;6.150;2023-06-22T05:12:38;102091.41;;;24.29;56.84
62126;BME280;69591;53.282;6.150;2023-06-22T05:13:39;102088.28;;;24.27;57.42
62126;BME280;69591;53.282;6.150;2023-06-22T05:14:41;102092.19;;;24.30;57.06
62126;BME280;69591;53.282;6.150;2023-06-22T05:15:43;102093.00;;;24.30;56.88
62126;BME280;69591;53.282;6.150;2023-06-22T05:16:46;102088.25;;;24.31;56.98
62126;BME280;69591;53.282;6.150;2023-06-22T05:17:47;102094.53;;;24.31;57.26
62126;BME280;69591;53.282;6.150;2023-06-22T05:18:51;102094.94;;;24.30;57.14
62126;BME280;69591;53.282;6.150;2023-06-22T05:19:53;102100.06;;;24.31;56.98
62126;BME280;69591;53.282;6.150;2023-06-22T05:20:55;102098.09;;;24.32;57.01
62126;BME280;69591;53.282;6.150;2023-06-22T05:21:58;102103.22;;;24.33;57.09
62126;BME280;69591;53.282;6.150;2023-06-22T05:23:00;102105.97;;;24.33;56.96
62126;BME280;69591;53.282;6.150;2023-06-22T05:24:02;102113.06;;;24.34;56.96
62126;BME280;69591;53.282;6.150;2023-06-22T05:25:07;102113.44;;;24.36;56.87
62126;BME280;69591;53.282;6.150;2023-06-22T05:26:09;102106.38;;;24.35;57.28
62126;BME280;69591;53.282;6.150;2023-06-22T05:27:11;102103.22;;;24.33;57.37
62126;BME280;69591;53.282;6.150;2023-06-22T05:28:13;102106.72;;;24.37;56.93